Time;durP1;ratioP1;P1;durP2;ratioP2;P2;SDS_P1;SDS_P2;PMS_P1;PMS_P2;Temp;Humidity;BMP_temperature;BMP_pressure;BME280_temperature;BME280_humidity;BME280_pressure;Samples;Min_cycle;Max_cycle;Signal;HPM_P1;HPM_P2
2021/09/27 00:04:34;;;;;;;4.63;3.83;;;;;;;8.78;100.00;101170.53;21153872;27;20220;-65
2021/09/27 00:14:39;;;;;;;5.47;3.37;;;;;;;8.90;100.00;101167.34;21153815;27;20217;-62
2021/09/27 00:24:41;;;;;;;4.80;3.47;;;;;;;9.06;100.00;101156.03;21136622;27;20274;-62
2021/09/27 00:34:45;;;;;;;4.90;3.20;;;;;;;9.10;100.00;101150.47;21104412;27;20225;-62
2021/09/27 00:44:47;;;;;;;5.57;3.50;;;;;;;9.05;100.00;101146.31;21152590;27;20224;-68
2021/09/27 00:54:51;;;;;;;4.43;3.00;;;;;;;9.03;100.00;101154.38;21156576;27;20315;-62
2021/09/27 01:04:54;;;;;;;3.63;2.63;;;;;;;8.90;100.00;101143.38;21166763;27;20227;-61
2021/09/27 01:15:12;;;;;;;3.47;2.60;;;;;;;8.86;100.00;101138.25;21166125;27;20261;-62
2021/09/27 01:25:41;;;;;;;3.20;2.20;;;;;;;8.82;100.00;101134.84;21164875;27;20239;-62
2021/09/27 01:35:50;;;;;;;2.63;2.30;;;;;;;8.88;100.00;101139.06;21164679;27;20224;-62
2021/09/27 01:45:57;;;;;;;2.87;2.60;;;;;;;8.79;100.00;101145.66;21163729;27;20571;-62
2021/09/27 01:56:05;;;;;;;2.83;2.50;;;;;;;8.83;100.00;101130.41;21163279;27;20227;-63
2021/09/27 02:06:11;;;;;;;4.20;2.57;;;;;;;8.80;100.00;101150.06;21161081;27;20234;-63
2021/09/27 02:16:21;;;;;;;3.07;2.60;;;;;;;8.91;100.00;101154.91;21161165;27;20569;-62
2021/09/27 02:26:23;;;;;;;3.63;2.80;;;;;;;8.86;100.00;101152.44;21160222;27;20261;-63
2021/09/27 02:36:30;;;;;;;2.73;2.43;;;;;;;8.74;100.00;101163.59;21158768;27;20590;-63
2021/09/27 02:46:33;;;;;;;3.77;2.57;;;;;;;8.67;100.00;101156.84;21113642;27;20746;-63
2021/09/27 02:56:57;;;;;;;3.00;2.70;;;;;;;8.63;100.00;101158.75;21073804;28;20225;-62
2021/09/27 03:07:08;;;;;;;5.33;3.30;;;;;;;8.66;100.00;101149.78;21077642;27;20234;-62
2021/09/27 03:17:18;;;;;;;4.03;2.90;;;;;;;8.64;100.00;101151.63;21071811;28;20236;-62
2021/09/27 03:27:28;;;;;;;2.97;2.43;;;;;;;8.56;100.00;101148.44;21133379;27;20734;-62
2021/09/27 03:37:43;;;;;;;3.10;2.43;;;;;;;8.52;100.00;101146.84;21154085;27;20274;-62
2021/09/27 03:47:52;;;;;;;3.20;2.80;;;;;;;8.43;100.00;101142.78;21154779;27;20565;-63
2021/09/27 03:58:03;;;;;;;3.97;3.10;;;;;;;8.36;100.00;101138.63;21154763;27;20247;-70
2021/09/27 04:08:11;;;;;;;3.73;2.90;;;;;;;8.42;100.00;101140.19;21151518;27;20723;-63
2021/09/27 04:18:21;;;;;;;3.60;2.90;;;;;;;8.44;100.00;101133.88;21142946;27;20263;-60
2021/09/27 04:28:36;;;;;;;5.40;3.00;;;;;;;8.43;100.00;101136.59;21161424;27;20238;-64
2021/09/27 04:38:40;;;;;;;4.43;3.00;;;;;;;8.29;100.00;101135.34;21140624;27;20231;-60
2021/09/27 04:48:53;;;;;;;3.47;2.90;;;;;;;8.30;100.00;101126.44;21080710;28;20223;-60
2021/09/27 04:59:11;;;;;;;4.73;3.10;;;;;;;8.57;100.00;101144.88;21082595;28;20281;-60
2021/09/27 05:09:24;;;;;;;5.40;3.70;;;;;;;8.83;100.00;101152.56;21105229;27;20217;-75
2021/09/27 05:20:17;;;;;;;4.83;2.97;;;;;;;9.16;100.00;101149.34;21119000;27;20249;-70
2021/09/27 05:30:30;;;;;;;3.40;2.60;;;;;;;9.52;100.00;101155.66;20914821;28;20226;-60
2021/09/27 05:40:37;;;;;;;2.93;2.53;;;;;;;9.94;100.00;101151.88;20991008;28;20244;-60
2021/09/27 05:50:44;;;;;;;2.90;2.70;;;;;;;10.38;100.00;101155.94;20994474;28;20227;-60
2021/09/27 06:00:51;;;;;;;4.10;2.93;;;;;;;10.80;100.00;101157.34;20994562;28;20234;-60
2021/09/27 06:11:01;;;;;;;3.90;3.10;;;;;;;11.16;100.00;101159.91;20993810;28;20723;-60
2021/09/27 06:21:32;;;;;;;3.70;3.00;;;;;;;11.54;100.00;101161.38;21000792;28;20222;-60
2021/09/27 06:31:41;;;;;;;4.70;2.90;;;;;;;11.92;100.00;101144.16;20992174;28;20306;-60
2021/09/27 06:41:47;;;;;;;3.53;2.90;;;;;;;12.24;100.00;101161.91;20990938;28;20226;-60
2021/09/27 06:51:52;;;;;;;4.60;2.80;;;;;;;12.47;100.00;101158.75;20989518;28;20235;-60
2021/09/27 07:01:54;;;;;;;6.83;3.00;;;;;;;12.74;100.00;101155.41;20989854;28;20728;-59
2021/09/27 07:11:58;;;;;;;3.73;2.67;;;;;;;13.03;100.00;101156.31;20989243;28;20230;-59
2021/09/27 07:22:00;;;;;;;3.47;2.27;;;;;;;13.44;100.00;101159.13;20988603;28;20237;-60
2021/09/27 07:32:05;;;;;;;2.87;2.20;;;;;;;13.86;100.00;101148.38;21004555;27;20234;-61
2021/09/27 07:42:07;;;;;;;4.23;1.80;;;;;;;14.37;100.00;101159.31;20987186;28;20324;-60
2021/09/27 07:52:11;;;;;;;2.40;1.90;;;;;;;14.78;100.00;101159.25;20987088;28;20234;-60
2021/09/27 08:02:18;;;;;;;3.37;2.00;;;;;;;15.14;100.00;101147.78;20996562;28;20305;-63
2021/09/27 08:12:22;;;;;;;2.07;1.87;;;;;;;15.46;100.00;101146.34;21003173;28;20218;-60
2021/09/27 08:22:24;;;;;;;4.10;2.00;;;;;;;15.77;100.00;101146.88;21002374;28;20242;-60
2021/09/27 08:32:28;;;;;;;2.73;2.00;;;;;;;15.94;100.00;101141.09;21001672;28;21055;-59
2021/09/27 08:42:35;;;;;;;2.97;1.87;;;;;;;16.21;100.00;101154.34;21000219;28;20324;-59
2021/09/27 08:52:41;;;;;;;2.57;1.90;;;;;;;16.47;100.00;101172.13;20999543;28;20317;-59
2021/09/27 09:02:53;;;;;;;2.67;1.67;;;;;;;16.75;100.00;101159.28;20999421;28;20227;-63
2021/09/27 09:13:00;;;;;;;2.00;1.60;;;;;;;16.82;100.00;101145.22;20997937;28;20703;-62
2021/09/27 09:23:04;;;;;;;2.07;1.43;;;;;;;17.00;100.00;101158.25;21013968;27;20296;-60
2021/09/27 09:33:08;;;;;;;1.97;1.27;;;;;;;17.24;100.00;101150.94;20997126;28;20309;-63
2021/09/27 09:43:12;;;;;;;2.70;1.30;;;;;;;17.42;100.00;101143.22;20995778;28;20239;-59
2021/09/27 09:53:24;;;;;;;2.00;1.37;;;;;;;17.67;100.00;101131.34;20994161;28;20310;-59
2021/09/27 10:03:31;;;;;;;2.77;1.17;;;;;;;17.82;100.00;101122.00;20994808;28;20305;-59
2021/09/27 10:13:43;;;;;;;3.13;1.90;;;;;;;17.95;100.00;101126.28;20992387;28;20226;-59
2021/09/27 10:23:52;;;;;;;1.90;1.30;;;;;;;18.10;100.00;101121.44;20991550;28;20257;-58
2021/09/27 10:34:00;;;;;;;1.30;1.17;;;;;;;18.23;100.00;101129.41;20991899;28;20226;-59
2021/09/27 10:44:04;;;;;;;1.43;1.03;;;;;;;18.22;100.00;101123.13;21007244;27;20228;-59
2021/09/27 10:54:24;;;;;;;2.70;1.43;;;;;;;18.31;90.55;101084.53;20990562;28;20306;-60
2021/09/27 11:04:34;;;;;;;1.53;1.20;;;;;;;18.37;90.70;101069.63;20989523;28;20233;-63
2021/09/27 11:14:50;;;;;;;1.70;1.17;;;;;;;18.50;100.00;101082.94;20988982;28;20332;-58
2021/09/27 11:25:07;;;;;;;1.43;1.27;;;;;;;18.58;97.34;101078.66;20988369;28;20291;-59
2021/09/27 11:35:27;;;;;;;65.20;29.20;;;;;;;18.64;100.00;101082.66;21003167;27;20302;-60
2021/09/27 11:45:53;;;;;;;1.87;1.50;;;;;;;18.80;86.08;101056.03;20987054;28;20586;-62
2021/09/27 11:56:03;;;;;;;2.53;1.10;;;;;;;18.81;100.00;101063.16;20986876;28;20229;-60
2021/09/27 12:06:09;;;;;;;2.03;1.30;;;;;;;18.69;100.00;101046.13;21002489;27;20234;-59
2021/09/27 12:16:17;;;;;;;5.73;1.60;;;;;;;18.83;100.00;101028.72;20986199;28;20263;-59
2021/09/27 12:26:26;;;;;;;2.03;1.20;;;;;;;18.82;100.00;101047.78;20985457;28;20233;-59
2021/09/27 12:36:29;;;;;;;3.23;1.57;;;;;;;18.83;100.00;101022.44;20984141;28;20583;-59
2021/09/27 12:46:32;;;;;;;1.17;1.00;;;;;;;18.82;100.00;101035.13;20989319;28;20219;-57
2021/09/27 12:56:36;;;;;;;3.47;1.50;;;;;;;18.82;100.00;101021.59;21000012;28;20231;-60
2021/09/27 13:06:52;;;;;;;1.93;1.10;;;;;;;18.89;94.91;101014.63;20998993;28;20311;-59
2021/09/27 13:17:11;;;;;;;1.40;1.13;;;;;;;18.80;92.39;101015.47;20998151;28;20237;-59
2021/09/27 13:27:17;;;;;;;1.50;1.03;;;;;;;18.61;88.28;101013.47;21012445;27;20232;-59
2021/09/27 13:37:26;;;;;;;1.40;1.00;;;;;;;18.64;95.62;100988.03;20994565;28;20638;-67
2021/09/27 13:47:29;;;;;;;1.67;0.97;;;;;;;18.61;93.68;100999.09;20994230;28;20313;-68
2021/09/27 13:57:32;;;;;;;3.03;1.00;;;;;;;18.54;88.86;101004.16;20994565;28;20232;-59
2021/09/27 14:07:35;;;;;;;3.50;0.73;;;;;;;18.57;100.00;100986.84;20994347;28;20300;-62
2021/09/27 14:17:39;;;;;;;1.03;0.70;;;;;;;18.50;100.00;100988.34;20991593;28;20230;-62
2021/09/27 14:27:41;;;;;;;2.93;0.90;;;;;;;18.44;100.00;100991.59;20992496;28;20274;-58
2021/09/27 14:37:45;;;;;;;1.63;1.07;;;;;;;18.33;100.00;100996.09;20991864;28;20301;-65
2021/09/27 14:47:47;;;;;;;5.57;1.40;;;;;;;18.12;100.00;101008.69;20990572;28;20231;-59
2021/09/27 14:57:52;;;;;;;1.47;1.00;;;;;;;17.95;100.00;101006.59;21003147;28;20225;-60
2021/09/27 15:07:59;;;;;;;1.73;0.93;;;;;;;17.77;100.00;101018.91;21072466;28;20243;-59
2021/09/27 15:18:05;;;;;;;1.97;1.07;;;;;;;17.43;100.00;101005.47;21114242;27;20234;-61
2021/09/27 15:28:08;;;;;;;1.40;1.20;;;;;;;17.07;100.00;101019.25;21047880;27;20227;-60
2021/09/27 15:38:16;;;;;;;2.00;1.30;;;;;;;16.75;100.00;101008.34;21045074;27;20226;-60
2021/09/27 15:48:18;;;;;;;3.07;1.00;;;;;;;16.40;100.00;100989.53;20995494;28;20230;-71
2021/09/27 15:58:28;;;;;;;2.37;1.20;;;;;;;15.97;100.00;101006.28;20994407;27;20575;-58
2021/09/27 16:08:31;;;;;;;2.53;2.33;;;;;;;15.61;100.00;101004.50;21035521;27;20249;-59
2021/09/27 16:18:35;;;;;;;1.83;1.47;;;;;;;15.09;100.00;100996.69;21019914;27;20219;-62
2021/09/27 16:28:40;;;;;;;1.37;1.27;;;;;;;14.91;100.00;101016.81;21060735;27;20298;-62
2021/09/27 16:38:44;;;;;;;3.37;1.40;;;;;;;14.56;100.00;101025.53;21019377;27;20699;-62
2021/09/27 16:48:49;;;;;;;2.17;1.53;;;;;;;14.09;100.00;101031.44;21011185;27;20310;-64
2021/09/27 16:58:55;;;;;;;1.90;1.70;;;;;;;13.81;100.00;101037.78;21007741;27;20656;-65
2021/09/27 17:08:58;;;;;;;3.27;1.67;;;;;;;13.58;100.00;101052.72;21065064;27;20269;-63
2021/09/27 17:19:02;;;;;;;1.70;1.60;;;;;;;13.49;100.00;101041.75;21073685;27;20233;-64
2021/09/27 17:29:06;;;;;;;2.30;1.40;;;;;;;13.30;100.00;101052.75;21016493;27;20302;-64
2021/09/27 17:39:12;;;;;;;2.43;1.67;;;;;;;13.09;100.00;101054.97;20995459;28;20726;-65
2021/09/27 17:49:16;;;;;;;1.60;1.50;;;;;;;13.01;100.00;101053.72;20993092;28;20254;-58
2021/09/27 17:59:20;;;;;;;3.40;2.07;;;;;;;12.92;100.00;101052.50;20992379;28;20220;-58
2021/09/27 18:09:22;;;;;;;2.57;2.20;;;;;;;12.86;100.00;101053.72;20992085;28;20242;-58
2021/09/27 18:19:26;;;;;;;2.57;2.30;;;;;;;12.76;100.00;101065.09;20991925;27;20352;-63
2021/09/27 18:29:28;;;;;;;1.90;1.80;;;;;;;12.66;100.00;101062.13;20988858;28;20227;-60
2021/09/27 18:39:32;;;;;;;2.70;2.20;;;;;;;12.49;100.00;101060.47;21026419;28;20823;-58
2021/09/27 18:49:34;;;;;;;2.57;2.30;;;;;;;12.44;100.00;101057.19;21020467;28;20268;-59
2021/09/27 18:59:38;;;;;;;2.87;2.50;;;;;;;12.31;100.00;101058.91;21018800;27;20242;-60
2021/09/27 19:09:41;;;;;;;3.90;2.60;;;;;;;12.13;100.00;101068.00;21020913;28;20233;-63
2021/09/27 19:19:45;;;;;;;3.20;2.63;;;;;;;11.93;100.00;101071.88;21020778;28;20225;-59
2021/09/27 19:29:47;;;;;;;3.20;2.60;;;;;;;11.77;100.00;101074.53;21019570;28;20246;-58
2021/09/27 19:39:51;;;;;;;3.27;2.93;;;;;;;11.66;100.00;101084.97;21042699;28;20574;-58
2021/09/27 19:49:54;;;;;;;3.43;3.03;;;;;;;11.54;100.00;101074.97;21104407;27;20241;-58
2021/09/27 19:59:57;;;;;;;3.80;2.70;;;;;;;11.36;100.00;101081.31;21104329;28;20228;-60
2021/09/27 20:10:00;;;;;;;2.80;2.50;;;;;;;11.24;100.00;101079.31;21014920;27;20225;-58
2021/09/27 20:20:05;;;;;;;3.73;2.57;;;;;;;11.18;100.00;101081.41;21010783;28;20226;-58
2021/09/27 20:30:10;;;;;;;2.73;2.53;;;;;;;11.07;100.00;101102.50;21035276;27;20285;-60
2021/09/27 20:40:17;;;;;;;4.67;3.20;;;;;;;10.89;100.00;101099.91;21018213;28;20591;-60
2021/09/27 20:50:26;;;;;;;2.60;2.40;;;;;;;10.77;100.00;101096.94;21017009;28;20233;-58
2021/09/27 21:00:32;;;;;;;3.33;2.67;;;;;;;10.67;100.00;101097.53;21015224;28;20236;-67
2021/09/27 21:10:37;;;;;;;2.50;2.30;;;;;;;10.56;100.00;101097.22;21017006;27;20309;-62
2021/09/27 21:20:41;;;;;;;2.63;2.40;;;;;;;10.43;100.00;101099.66;21030627;28;20245;-60
2021/09/27 21:30:45;;;;;;;2.67;2.47;;;;;;;10.32;100.00;101089.53;21013829;27;20565;-59
2021/09/27 21:40:50;;;;;;;2.60;2.40;;;;;;;10.21;100.00;101097.22;21070009;27;20229;-58
2021/09/27 21:50:53;;;;;;;2.60;2.40;;;;;;;10.07;100.00;101113.00;21079247;27;20230;-58
2021/09/27 22:00:57;;;;;;;2.47;2.30;;;;;;;9.88;100.00;101106.88;21078462;27;20736;-58
2021/09/27 22:11:01;;;;;;;2.80;2.57;;;;;;;9.71;100.00;101118.31;21077968;27;20229;-58
2021/09/27 22:21:03;;;;;;;2.80;2.47;;;;;;;9.53;100.00;101122.75;21076669;27;20218;-58
2021/09/27 22:31:07;;;;;;;2.90;2.67;;;;;;;9.36;100.00;101115.53;21076155;27;20247;-57
2021/09/27 22:41:09;;;;;;;2.63;2.40;;;;;;;9.31;100.00;101122.00;21074360;27;20320;-58
2021/09/27 22:51:13;;;;;;;2.43;2.23;;;;;;;9.15;100.00;101131.66;20993347;27;20312;-58
2021/09/27 23:01:15;;;;;;;2.20;2.00;;;;;;;9.00;100.00;101128.72;21071340;27;20236;-57
2021/09/27 23:11:19;;;;;;;2.30;2.20;;;;;;;8.95;100.00;101133.38;21072749;27;20331;-58
2021/09/27 23:21:21;;;;;;;2.47;2.27;;;;;;;8.87;100.00;101143.50;21125431;27;20311;-60
2021/09/27 23:31:25;;;;;;;3.07;2.20;;;;;;;8.82;100.00;101144.63;21051887;27;20234;-63
2021/09/27 23:41:27;;;;;;;2.80;2.53;;;;;;;8.81;100.00;101142.94;21065957;27;20754;-58
2021/09/27 23:51:31;;;;;;;2.77;2.20;;;;;;;8.70;100.00;101148.69;21070719;27;20306;-59
